sensor_id;sensor_type;location;lat;lon;timestamp;P1;durP1;ratioP1;P2;durP2;ratioP2
74900;SDS011;63461;51.416;6.758;2024-02-04T00:00:33;11.60;;;6.50;;
74900;SDS011;63461;51.416;6.758;2024-02-04T00:02:59;10.03;;;5.47;;
74900;SDS011;63461;51.416;6.758;2024-02-04T00:05:25;9.53;;;5.27;;
74900;SDS011;63461;51.416;6.758;2024-02-04T00:07:51;9.30;;;5.80;;
74900;SDS011;63461;51.416;6.758;2024-02-04T00:10:17;7.67;;;4.60;;
74900;SDS011;63461;51.416;6.758;2024-02-04T00:12:43;6.13;;;3.60;;
74900;SDS011;63461;51.416;6.758;2024-02-04T00:15:09;3.33;;;2.17;;
74900;SDS011;63461;51.416;6.758;2024-02-04T00:17:35;5.07;;;3.20;;
74900;SDS011;63461;51.416;6.758;2024-02-04T00:20:02;5.30;;;2.97;;
74900;SDS011;63461;51.416;6.758;2024-02-04T00:22:31;4.83;;;3.20;;
74900;SDS011;63461;51.416;6.758;2024-02-04T00:24:58;7.30;;;3.17;;
74900;SDS011;63461;51.416;6.758;2024-02-04T00:27:30;5.30;;;3.40;;
74900;SDS011;63461;51.416;6.758;2024-02-04T00:29:57;7.67;;;3.53;;
74900;SDS011;63461;51.416;6.758;2024-02-04T00:32:23;6.40;;;3.43;;
74900;SDS011;63461;51.416;6.758;2024-02-04T00:34:50;6.50;;;3.97;;
74900;SDS011;63461;51.416;6.758;2024-02-04T00:37:16;5.43;;;3.80;;
74900;SDS011;63461;51.416;6.758;2024-02-04T00:39:42;4.70;;;3.00;;
74900;SDS011;63461;51.416;6.758;2024-02-04T00:42:07;4.97;;;3.17;;
74900;SDS011;63461;51.416;6.758;2024-02-04T00:44:33;4.13;;;2.43;;
74900;SDS011;63461;51.416;6.758;2024-02-04T00:46:59;3.40;;;2.27;;
74900;SDS011;63461;51.416;6.758;2024-02-04T00:49:25;3.73;;;2.60;;
74900;SDS011;63461;51.416;6.758;2024-02-04T00:51:52;6.03;;;3.17;;
74900;SDS011;63461;51.416;6.758;2024-02-04T00:54:18;4.97;;;3.07;;
74900;SDS011;63461;51.416;6.758;2024-02-04T00:56:44;7.10;;;3.50;;
74900;SDS011;63461;51.416;6.758;2024-02-04T00:59:10;6.10;;;3.87;;
74900;SDS011;63461;51.416;6.758;2024-02-04T01:01:37;6.90;;;4.20;;
74900;SDS011;63461;51.416;6.758;2024-02-04T01:04:03;8.13;;;4.33;;
74900;SDS011;63461;51.416;6.758;2024-02-04T01:06:29;8.50;;;5.67;;
74900;SDS011;63461;51.416;6.758;2024-02-04T01:08:55;8.73;;;5.13;;
74900;SDS011;63461;51.416;6.758;2024-02-04T01:11:22;6.90;;;4.37;;
74900;SDS011;63461;51.416;6.758;2024-02-04T01:13:48;10.30;;;5.67;;
74900;SDS011;63461;51.416;6.758;2024-02-04T01:16:14;8.13;;;5.50;;
74900;SDS011;63461;51.416;6.758;2024-02-04T01:18:43;10.87;;;5.40;;
74900;SDS011;63461;51.416;6.758;2024-02-04T01:21:08;10.80;;;5.40;;
74900;SDS011;63461;51.416;6.758;2024-02-04T01:23:34;11.50;;;5.00;;
74900;SDS011;63461;51.416;6.758;2024-02-04T01:26:00;10.73;;;5.70;;
74900;SDS011;63461;51.416;6.758;2024-02-04T01:28:26;11.77;;;5.70;;
74900;SDS011;63461;51.416;6.758;2024-02-04T01:30:52;11.67;;;5.37;;
74900;SDS011;63461;51.416;6.758;2024-02-04T01:33:17;13.00;;;5.27;;
74900;SDS011;63461;51.416;6.758;2024-02-04T01:35:43;11.83;;;5.40;;
74900;SDS011;63461;51.416;6.758;2024-02-04T01:38:09;13.17;;;6.53;;
74900;SDS011;63461;51.416;6.758;2024-02-04T01:40:35;15.70;;;6.77;;
74900;SDS011;63461;51.416;6.758;2024-02-04T01:43:01;12.17;;;6.33;;
74900;SDS011;63461;51.416;6.758;2024-02-04T01:45:27;12.37;;;6.80;;
74900;SDS011;63461;51.416;6.758;2024-02-04T01:47:53;11.00;;;5.07;;
74900;SDS011;63461;51.416;6.758;2024-02-04T01:50:19;11.33;;;6.53;;
74900;SDS011;63461;51.416;6.758;2024-02-04T01:52:46;6.83;;;4.07;;
74900;SDS011;63461;51.416;6.758;2024-02-04T01:55:12;8.17;;;5.17;;
74900;SDS011;63461;51.416;6.758;2024-02-04T01:57:39;9.70;;;5.40;;
74900;SDS011;63461;51.416;6.758;2024-02-04T02:00:05;8.60;;;5.63;;
74900;SDS011;63461;51.416;6.758;2024-02-04T02:02:34;8.43;;;5.20;;
74900;SDS011;63461;51.416;6.758;2024-02-04T02:05:05;8.33;;;5.07;;
74900;SDS011;63461;51.416;6.758;2024-02-04T02:07:31;9.90;;;4.87;;
74900;SDS011;63461;51.416;6.758;2024-02-04T02:09:57;7.30;;;4.60;;
74900;SDS011;63461;51.416;6.758;2024-02-04T02:12:24;7.20;;;4.80;;
74900;SDS011;63461;51.416;6.758;2024-02-04T02:15:05;8.97;;;5.33;;
74900;SDS011;63461;51.416;6.758;2024-02-04T02:17:57;9.37;;;5.27;;
74900;SDS011;63461;51.416;6.758;2024-02-04T02:20:32;9.73;;;5.47;;
74900;SDS011;63461;51.416;6.758;2024-02-04T02:23:07;8.73;;;5.20;;
74900;SDS011;63461;51.416;6.758;2024-02-04T02:25:37;8.27;;;5.03;;
74900;SDS011;63461;51.416;6.758;2024-02-04T02:28:04;8.67;;;5.47;;
74900;SDS011;63461;51.416;6.758;2024-02-04T02:30:30;8.20;;;5.07;;
74900;SDS011;63461;51.416;6.758;2024-02-04T02:32:56;11.13;;;5.63;;
74900;SDS011;63461;51.416;6.758;2024-02-04T02:35:22;9.83;;;6.10;;
74900;SDS011;63461;51.416;6.758;2024-02-04T02:40:39;13.07;;;7.30;;
74900;SDS011;63461;51.416;6.758;2024-02-04T02:43:28;12.80;;;7.27;;
74900;SDS011;63461;51.416;6.758;2024-02-04T02:45:55;12.00;;;6.83;;
74900;SDS011;63461;51.416;6.758;2024-02-04T02:48:22;12.50;;;6.93;;
74900;SDS011;63461;51.416;6.758;2024-02-04T02:50:49;12.60;;;7.23;;
74900;SDS011;63461;51.416;6.758;2024-02-04T02:53:14;12.97;;;6.87;;
74900;SDS011;63461;51.416;6.758;2024-02-04T02:55:41;11.83;;;7.23;;
74900;SDS011;63461;51.416;6.758;2024-02-04T02:58:07;14.67;;;7.47;;
74900;SDS011;63461;51.416;6.758;2024-02-04T03:00:32;16.77;;;8.43;;
74900;SDS011;63461;51.416;6.758;2024-02-04T03:02:58;13.17;;;8.00;;
74900;SDS011;63461;51.416;6.758;2024-02-04T03:05:24;13.53;;;7.53;;
74900;SDS011;63461;51.416;6.758;2024-02-04T03:07:50;14.67;;;8.70;;
74900;SDS011;63461;51.416;6.758;2024-02-04T03:10:16;17.67;;;7.80;;
74900;SDS011;63461;51.416;6.758;2024-02-04T03:12:42;16.63;;;8.27;;
74900;SDS011;63461;51.416;6.758;2024-02-04T03:15:08;15.73;;;9.47;;
74900;SDS011;63461;51.416;6.758;2024-02-04T03:17:35;13.03;;;7.33;;
74900;SDS011;63461;51.416;6.758;2024-02-04T03:20:00;14.60;;;8.03;;
74900;SDS011;63461;51.416;6.758;2024-02-04T03:22:26;15.47;;;9.10;;
74900;SDS011;63461;51.416;6.758;2024-02-04T03:24:52;16.87;;;9.57;;
74900;SDS011;63461;51.416;6.758;2024-02-04T03:27:18;17.47;;;9.13;;
74900;SDS011;63461;51.416;6.758;2024-02-04T03:29:46;16.43;;;8.50;;
74900;SDS011;63461;51.416;6.758;2024-02-04T03:32:12;17.40;;;8.40;;
74900;SDS011;63461;51.416;6.758;2024-02-04T03:34:41;16.13;;;9.03;;
74900;SDS011;63461;51.416;6.758;2024-02-04T03:37:07;16.90;;;8.83;;
74900;SDS011;63461;51.416;6.758;2024-02-04T03:39:33;14.67;;;8.23;;
74900;SDS011;63461;51.416;6.758;2024-02-04T03:41:59;12.97;;;8.10;;
74900;SDS011;63461;51.416;6.758;2024-02-04T03:44:25;13.57;;;7.90;;
74900;SDS011;63461;51.416;6.758;2024-02-04T03:46:51;16.20;;;8.43;;
74900;SDS011;63461;51.416;6.758;2024-02-04T03:49:17;15.60;;;8.17;;
74900;SDS011;63461;51.416;6.758;2024-02-04T03:51:43;13.27;;;7.60;;
74900;SDS011;63461;51.416;6.758;2024-02-04T03:54:09;15.90;;;8.20;;
74900;SDS011;63461;51.416;6.758;2024-02-04T03:56:35;14.90;;;8.70;;
74900;SDS011;63461;51.416;6.758;2024-02-04T03:59:01;14.40;;;7.70;;
74900;SDS011;63461;51.416;6.758;2024-02-04T04:01:27;12.00;;;7.33;;
74900;SDS011;63461;51.416;6.758;2024-02-04T04:03:53;15.33;;;8.40;;
74900;SDS011;63461;51.416;6.758;2024-02-04T04:06:19;15.87;;;7.73;;
74900;SDS011;63461;51.416;6.758;2024-02-04T04:08:44;13.73;;;7.73;;
74900;SDS011;63461;51.416;6.758;2024-02-04T04:11:10;17.50;;;9.67;;
74900;SDS011;63461;51.416;6.758;2024-02-04T04:13:36;14.97;;;7.70;;
74900;SDS011;63461;51.416;6.758;2024-02-04T04:16:03;13.63;;;6.70;;
74900;SDS011;63461;51.416;6.758;2024-02-04T04:18:29;20.27;;;10.70;;
74900;SDS011;63461;51.416;6.758;2024-02-04T04:20:55;20.83;;;10.20;;
74900;SDS011;63461;51.416;6.758;2024-02-04T04:23:21;20.73;;;9.67;;
74900;SDS011;63461;51.416;6.758;2024-02-04T04:25:47;23.67;;;11.60;;
74900;SDS011;63461;51.416;6.758;2024-02-04T04:28:12;22.00;;;10.93;;
74900;SDS011;63461;51.416;6.758;2024-02-04T04:30:38;17.37;;;8.70;;
74900;SDS011;63461;51.416;6.758;2024-02-04T04:33:04;18.17;;;7.87;;
74900;SDS011;63461;51.416;6.758;2024-02-04T04:35:31;22.33;;;10.63;;
74900;SDS011;63461;51.416;6.758;2024-02-04T04:37:57;25.77;;;12.47;;
74900;SDS011;63461;51.416;6.758;2024-02-04T04:40:23;23.00;;;12.17;;
74900;SDS011;63461;51.416;6.758;2024-02-04T04:42:49;25.80;;;13.03;;
74900;SDS011;63461;51.416;6.758;2024-02-04T04:45:14;22.53;;;12.03;;
74900;SDS011;63461;51.416;6.758;2024-02-04T04:47:40;21.10;;;11.50;;
74900;SDS011;63461;51.416;6.758;2024-02-04T04:50:06;27.63;;;12.83;;
74900;SDS011;63461;51.416;6.758;2024-02-04T04:52:32;23.47;;;12.60;;
74900;SDS011;63461;51.416;6.758;2024-02-04T04:54:58;21.73;;;12.30;;
74900;SDS011;63461;51.416;6.758;2024-02-04T04:57:24;21.80;;;11.80;;
74900;SDS011;63461;51.416;6.758;2024-02-04T04:59:50;16.10;;;6.33;;
74900;SDS011;63461;51.416;6.758;2024-02-04T05:02:16;24.57;;;11.40;;
74900;SDS011;63461;51.416;6.758;2024-02-04T05:04:42;22.47;;;10.40;;
74900;SDS011;63461;51.416;6.758;2024-02-04T05:07:10;18.87;;;10.47;;
74900;SDS011;63461;51.416;6.758;2024-02-04T05:09:36;24.63;;;11.13;;
74900;SDS011;63461;51.416;6.758;2024-02-04T05:12:08;20.80;;;10.30;;
74900;SDS011;63461;51.416;6.758;2024-02-04T05:14:35;23.20;;;10.93;;
74900;SDS011;63461;51.416;6.758;2024-02-04T05:17:00;24.70;;;12.67;;
74900;SDS011;63461;51.416;6.758;2024-02-04T05:19:26;24.03;;;11.90;;
74900;SDS011;63461;51.416;6.758;2024-02-04T05:21:52;21.93;;;11.70;;
74900;SDS011;63461;51.416;6.758;2024-02-04T05:24:18;25.77;;;12.00;;
74900;SDS011;63461;51.416;6.758;2024-02-04T05:26:44;19.93;;;11.43;;
74900;SDS011;63461;51.416;6.758;2024-02-04T05:29:09;26.47;;;12.73;;
74900;SDS011;63461;51.416;6.758;2024-02-04T05:31:40;24.50;;;12.23;;
74900;SDS011;63461;51.416;6.758;2024-02-04T05:34:09;24.97;;;11.03;;
74900;SDS011;63461;51.416;6.758;2024-02-04T05:36:35;26.80;;;12.30;;
74900;SDS011;63461;51.416;6.758;2024-02-04T05:39:11;23.50;;;11.37;;
74900;SDS011;63461;51.416;6.758;2024-02-04T05:41:38;25.93;;;13.57;;
74900;SDS011;63461;51.416;6.758;2024-02-04T05:44:04;31.13;;;13.00;;
74900;SDS011;63461;51.416;6.758;2024-02-04T05:46:30;29.60;;;13.37;;
74900;SDS011;63461;51.416;6.758;2024-02-04T05:48:56;29.83;;;14.67;;
74900;SDS011;63461;51.416;6.758;2024-02-04T05:51:22;29.13;;;14.93;;
74900;SDS011;63461;51.416;6.758;2024-02-04T05:53:47;31.73;;;15.40;;
74900;SDS011;63461;51.416;6.758;2024-02-04T05:56:13;34.03;;;16.17;;
74900;SDS011;63461;51.416;6.758;2024-02-04T05:58:39;28.73;;;15.00;;
74900;SDS011;63461;51.416;6.758;2024-02-04T06:01:05;36.70;;;17.33;;
74900;SDS011;63461;51.416;6.758;2024-02-04T06:03:31;35.50;;;17.80;;
74900;SDS011;63461;51.416;6.758;2024-02-04T06:05:57;35.17;;;15.13;;
74900;SDS011;63461;51.416;6.758;2024-02-04T06:08:22;35.43;;;15.43;;
74900;SDS011;63461;51.416;6.758;2024-02-04T06:10:48;37.03;;;17.93;;
74900;SDS011;63461;51.416;6.758;2024-02-04T06:13:14;36.57;;;17.53;;
74900;SDS011;63461;51.416;6.758;2024-02-04T06:15:40;37.50;;;18.27;;
74900;SDS011;63461;51.416;6.758;2024-02-04T06:18:06;42.87;;;16.23;;
74900;SDS011;63461;51.416;6.758;2024-02-04T06:20:31;34.33;;;16.07;;
74900;SDS011;63461;51.416;6.758;2024-02-04T06:22:57;15.43;;;7.33;;
74900;SDS011;63461;51.416;6.758;2024-02-04T06:25:23;40.27;;;18.07;;
74900;SDS011;63461;51.416;6.758;2024-02-04T06:27:49;28.70;;;11.97;;
74900;SDS011;63461;51.416;6.758;2024-02-04T06:30:15;35.83;;;16.17;;
74900;SDS011;63461;51.416;6.758;2024-02-04T06:32:41;37.07;;;17.30;;
74900;SDS011;63461;51.416;6.758;2024-02-04T06:35:07;36.90;;;16.27;;
74900;SDS011;63461;51.416;6.758;2024-02-04T06:37:33;40.07;;;16.23;;
74900;SDS011;63461;51.416;6.758;2024-02-04T06:39:59;35.93;;;15.73;;
74900;SDS011;63461;51.416;6.758;2024-02-04T06:42:25;36.97;;;15.63;;
74900;SDS011;63461;51.416;6.758;2024-02-04T06:44:50;39.17;;;15.43;;
74900;SDS011;63461;51.416;6.758;2024-02-04T06:47:16;33.73;;;14.63;;
74900;SDS011;63461;51.416;6.758;2024-02-04T06:49:45;31.90;;;15.37;;
74900;SDS011;63461;51.416;6.758;2024-02-04T06:52:11;24.77;;;10.03;;
74900;SDS011;63461;51.416;6.758;2024-02-04T06:54:37;30.80;;;10.17;;
74900;SDS011;63461;51.416;6.758;2024-02-04T06:57:03;20.17;;;8.17;;
74900;SDS011;63461;51.416;6.758;2024-02-04T06:59:29;31.60;;;12.50;;
74900;SDS011;63461;51.416;6.758;2024-02-04T07:01:54;31.83;;;12.83;;
74900;SDS011;63461;51.416;6.758;2024-02-04T07:04:20;27.70;;;13.17;;
74900;SDS011;63461;51.416;6.758;2024-02-04T07:06:49;26.17;;;9.03;;
74900;SDS011;63461;51.416;6.758;2024-02-04T07:09:16;21.27;;;9.93;;
74900;SDS011;63461;51.416;6.758;2024-02-04T07:11:42;23.90;;;11.07;;
74900;SDS011;63461;51.416;6.758;2024-02-04T07:14:08;28.43;;;11.57;;
74900;SDS011;63461;51.416;6.758;2024-02-04T07:16:34;30.10;;;12.33;;
74900;SDS011;63461;51.416;6.758;2024-02-04T07:19:00;22.80;;;9.97;;
74900;SDS011;63461;51.416;6.758;2024-02-04T07:21:25;22.83;;;10.43;;
74900;SDS011;63461;51.416;6.758;2024-02-04T07:23:51;28.23;;;11.20;;
74900;SDS011;63461;51.416;6.758;2024-02-04T07:26:17;23.00;;;8.33;;
74900;SDS011;63461;51.416;6.758;2024-02-04T07:28:43;23.53;;;8.73;;
74900;SDS011;63461;51.416;6.758;2024-02-04T07:31:09;27.87;;;12.90;;
74900;SDS011;63461;51.416;6.758;2024-02-04T07:33:35;24.10;;;12.37;;
74900;SDS011;63461;51.416;6.758;2024-02-04T07:36:02;24.00;;;9.53;;
74900;SDS011;63461;51.416;6.758;2024-02-04T07:38:28;26.07;;;10.20;;
74900;SDS011;63461;51.416;6.758;2024-02-04T07:40:54;23.87;;;11.63;;
74900;SDS011;63461;51.416;6.758;2024-02-04T07:43:21;26.80;;;10.63;;
74900;SDS011;63461;51.416;6.758;2024-02-04T07:45:47;21.23;;;10.33;;
74900;SDS011;63461;51.416;6.758;2024-02-04T07:48:13;20.40;;;9.90;;
74900;SDS011;63461;51.416;6.758;2024-02-04T07:50:39;26.37;;;11.23;;
74900;SDS011;63461;51.416;6.758;2024-02-04T07:53:05;22.37;;;9.47;;
74900;SDS011;63461;51.416;6.758;2024-02-04T07:55:44;21.77;;;10.37;;
74900;SDS011;63461;51.416;6.758;2024-02-04T07:58:10;24.43;;;11.57;;
74900;SDS011;63461;51.416;6.758;2024-02-04T08:00:36;24.07;;;11.17;;
74900;SDS011;63461;51.416;6.758;2024-02-04T08:03:05;31.77;;;12.60;;
74900;SDS011;63461;51.416;6.758;2024-02-04T08:05:40;23.73;;;11.23;;
74900;SDS011;63461;51.416;6.758;2024-02-04T08:08:06;24.40;;;11.60;;
74900;SDS011;63461;51.416;6.758;2024-02-04T08:10:32;26.30;;;11.97;;
74900;SDS011;63461;51.416;6.758;2024-02-04T08:12:58;23.43;;;10.07;;
74900;SDS011;63461;51.416;6.758;2024-02-04T08:15:23;19.07;;;9.40;;
74900;SDS011;63461;51.416;6.758;2024-02-04T08:17:49;20.27;;;10.00;;
74900;SDS011;63461;51.416;6.758;2024-02-04T08:20:19;19.47;;;9.47;;
74900;SDS011;63461;51.416;6.758;2024-02-04T08:22:53;16.97;;;8.80;;
74900;SDS011;63461;51.416;6.758;2024-02-04T08:25:19;17.30;;;8.70;;
74900;SDS011;63461;51.416;6.758;2024-02-04T08:27:53;18.80;;;9.20;;
74900;SDS011;63461;51.416;6.758;2024-02-04T08:30:19;18.10;;;9.13;;
74900;SDS011;63461;51.416;6.758;2024-02-04T08:32:46;14.43;;;6.27;;
74900;SDS011;63461;51.416;6.758;2024-02-04T08:35:14;18.10;;;8.63;;
74900;SDS011;63461;51.416;6.758;2024-02-04T08:37:40;17.13;;;8.80;;
74900;SDS011;63461;51.416;6.758;2024-02-04T08:40:06;18.10;;;9.30;;
74900;SDS011;63461;51.416;6.758;2024-02-04T08:42:32;21.57;;;9.80;;
74900;SDS011;63461;51.416;6.758;2024-02-04T08:44:58;19.77;;;9.60;;
74900;SDS011;63461;51.416;6.758;2024-02-04T08:47:24;24.67;;;10.57;;
74900;SDS011;63461;51.416;6.758;2024-02-04T08:49:50;20.10;;;10.13;;
74900;SDS011;63461;51.416;6.758;2024-02-04T08:52:15;18.03;;;8.43;;
74900;SDS011;63461;51.416;6.758;2024-02-04T08:54:42;19.07;;;9.00;;
74900;SDS011;63461;51.416;6.758;2024-02-04T08:57:10;17.33;;;7.23;;
74900;SDS011;63461;51.416;6.758;2024-02-04T08:59:36;17.30;;;8.10;;
74900;SDS011;63461;51.416;6.758;2024-02-04T09:02:01;18.77;;;8.63;;
74900;SDS011;63461;51.416;6.758;2024-02-04T09:04:27;19.00;;;10.00;;
74900;SDS011;63461;51.416;6.758;2024-02-04T09:06:53;11.43;;;5.80;;
74900;SDS011;63461;51.416;6.758;2024-02-04T09:09:19;19.37;;;8.73;;
74900;SDS011;63461;51.416;6.758;2024-02-04T09:11:44;16.13;;;7.00;;
74900;SDS011;63461;51.416;6.758;2024-02-04T09:14:10;16.67;;;8.47;;
74900;SDS011;63461;51.416;6.758;2024-02-04T09:16:39;17.13;;;8.20;;
74900;SDS011;63461;51.416;6.758;2024-02-04T09:19:05;10.30;;;5.00;;
74900;SDS011;63461;51.416;6.758;2024-02-04T09:21:36;17.27;;;7.83;;
74900;SDS011;63461;51.416;6.758;2024-02-04T09:24:02;15.50;;;7.70;;
74900;SDS011;63461;51.416;6.758;2024-02-04T09:26:29;18.00;;;8.27;;
74900;SDS011;63461;51.416;6.758;2024-02-04T09:28:58;16.83;;;7.23;;
74900;SDS011;63461;51.416;6.758;2024-02-04T09:31:23;13.47;;;7.27;;
74900;SDS011;63461;51.416;6.758;2024-02-04T09:33:49;17.03;;;7.87;;
74900;SDS011;63461;51.416;6.758;2024-02-04T09:36:15;17.70;;;8.60;;
74900;SDS011;63461;51.416;6.758;2024-02-04T09:38:41;15.83;;;8.23;;
74900;SDS011;63461;51.416;6.758;2024-02-04T09:41:06;13.73;;;7.17;;
74900;SDS011;63461;51.416;6.758;2024-02-04T09:43:32;17.30;;;8.20;;
74900;SDS011;63461;51.416;6.758;2024-02-04T09:46:00;18.90;;;7.53;;
74900;SDS011;63461;51.416;6.758;2024-02-04T09:48:26;15.03;;;7.43;;
74900;SDS011;63461;51.416;6.758;2024-02-04T09:50:56;13.10;;;5.43;;
74900;SDS011;63461;51.416;6.758;2024-02-04T09:53:27;12.27;;;5.77;;
74900;SDS011;63461;51.416;6.758;2024-02-04T09:56:00;12.80;;;6.50;;
74900;SDS011;63461;51.416;6.758;2024-02-04T09:58:27;14.50;;;7.40;;
74900;SDS011;63461;51.416;6.758;2024-02-04T10:00:54;13.73;;;6.70;;
74900;SDS011;63461;51.416;6.758;2024-02-04T10:03:20;14.77;;;6.73;;
74900;SDS011;63461;51.416;6.758;2024-02-04T10:05:46;16.97;;;7.87;;
74900;SDS011;63461;51.416;6.758;2024-02-04T10:08:12;13.20;;;7.03;;
74900;SDS011;63461;51.416;6.758;2024-02-04T10:10:40;13.03;;;7.33;;
74900;SDS011;63461;51.416;6.758;2024-02-04T10:13:10;16.40;;;7.60;;
74900;SDS011;63461;51.416;6.758;2024-02-04T10:15:36;14.33;;;6.83;;
74900;SDS011;63461;51.416;6.758;2024-02-04T10:18:05;14.60;;;6.60;;
74900;SDS011;63461;51.416;6.758;2024-02-04T10:20:31;12.77;;;6.20;;
74900;SDS011;63461;51.416;6.758;2024-02-04T10:22:57;13.97;;;6.80;;
74900;SDS011;63461;51.416;6.758;2024-02-04T10:25:23;12.83;;;6.07;;
74900;SDS011;63461;51.416;6.758;2024-02-04T10:27:49;12.13;;;6.27;;
74900;SDS011;63461;51.416;6.758;2024-02-04T10:30:18;11.23;;;5.27;;
74900;SDS011;63461;51.416;6.758;2024-02-04T10:32:46;11.30;;;5.80;;
74900;SDS011;63461;51.416;6.758;2024-02-04T10:35:13;13.87;;;6.20;;
74900;SDS011;63461;51.416;6.758;2024-02-04T10:37:39;7.50;;;4.37;;
74900;SDS011;63461;51.416;6.758;2024-02-04T10:40:05;11.87;;;6.03;;
74900;SDS011;63461;51.416;6.758;2024-02-04T10:42:32;9.17;;;5.20;;
74900;SDS011;63461;51.416;6.758;2024-02-04T10:44:59;11.83;;;4.73;;
74900;SDS011;63461;51.416;6.758;2024-02-04T10:47:32;10.00;;;5.47;;
74900;SDS011;63461;51.416;6.758;2024-02-04T10:49:59;12.57;;;5.63;;
74900;SDS011;63461;51.416;6.758;2024-02-04T10:52:28;11.43;;;5.17;;
74900;SDS011;63461;51.416;6.758;2024-02-04T10:55:00;8.27;;;4.40;;
74900;SDS011;63461;51.416;6.758;2024-02-04T10:57:27;8.97;;;4.30;;
74900;SDS011;63461;51.416;6.758;2024-02-04T10:59:55;7.73;;;3.40;;
74900;SDS011;63461;51.416;6.758;2024-02-04T11:02:21;7.90;;;3.93;;
74900;SDS011;63461;51.416;6.758;2024-02-04T11:04:48;8.03;;;3.40;;
74900;SDS011;63461;51.416;6.758;2024-02-04T11:07:17;8.40;;;4.00;;
74900;SDS011;63461;51.416;6.758;2024-02-04T11:09:48;7.53;;;4.50;;
74900;SDS011;63461;51.416;6.758;2024-02-04T11:12:15;6.60;;;4.00;;
74900;SDS011;63461;51.416;6.758;2024-02-04T11:14:44;7.13;;;4.70;;
74900;SDS011;63461;51.416;6.758;2024-02-04T11:26:02;7.47;;;4.07;;
74900;SDS011;63461;51.416;6.758;2024-02-04T11:28:30;6.93;;;3.90;;
74900;SDS011;63461;51.416;6.758;2024-02-04T11:30:56;7.47;;;3.53;;
74900;SDS011;63461;51.416;6.758;2024-02-04T11:33:22;9.47;;;4.13;;
74900;SDS011;63461;51.416;6.758;2024-02-04T11:36:03;5.97;;;3.40;;
74900;SDS011;63461;51.416;6.758;2024-02-04T11:38:30;8.27;;;4.83;;
74900;SDS011;63461;51.416;6.758;2024-02-04T11:40:57;9.97;;;4.63;;
74900;SDS011;63461;51.416;6.758;2024-02-04T11:43:23;10.03;;;4.83;;
74900;SDS011;63461;51.416;6.758;2024-02-04T11:45:51;11.33;;;5.97;;
74900;SDS011;63461;51.416;6.758;2024-02-04T11:48:18;11.10;;;5.33;;
74900;SDS011;63461;51.416;6.758;2024-02-04T11:50:51;10.40;;;5.87;;
74900;SDS011;63461;51.416;6.758;2024-02-04T11:53:18;10.73;;;5.77;;
74900;SDS011;63461;51.416;6.758;2024-02-04T11:55:44;11.47;;;5.43;;
74900;SDS011;63461;51.416;6.758;2024-02-04T11:58:10;9.23;;;4.97;;
74900;SDS011;63461;51.416;6.758;2024-02-04T12:00:37;9.90;;;4.77;;
74900;SDS011;63461;51.416;6.758;2024-02-04T12:03:04;14.93;;;5.67;;
74900;SDS011;63461;51.416;6.758;2024-02-04T12:05:32;10.20;;;4.93;;
74900;SDS011;63461;51.416;6.758;2024-02-04T12:08:00;9.07;;;3.97;;
74900;SDS011;63461;51.416;6.758;2024-02-04T12:10:28;8.13;;;4.70;;
74900;SDS011;63461;51.416;6.758;2024-02-04T12:12:55;10.37;;;5.13;;
74900;SDS011;63461;51.416;6.758;2024-02-04T12:15:21;11.40;;;5.20;;
74900;SDS011;63461;51.416;6.758;2024-02-04T12:17:47;7.97;;;4.07;;
74900;SDS011;63461;51.416;6.758;2024-02-04T12:20:13;11.10;;;5.93;;
74900;SDS011;63461;51.416;6.758;2024-02-04T12:22:40;11.33;;;5.30;;
74900;SDS011;63461;51.416;6.758;2024-02-04T12:25:05;8.97;;;4.77;;
74900;SDS011;63461;51.416;6.758;2024-02-04T12:27:34;7.93;;;4.50;;
74900;SDS011;63461;51.416;6.758;2024-02-04T12:30:00;10.93;;;5.00;;
74900;SDS011;63461;51.416;6.758;2024-02-04T12:32:26;8.80;;;3.83;;
74900;SDS011;63461;51.416;6.758;2024-02-04T12:34:53;8.70;;;4.60;;
74900;SDS011;63461;51.416;6.758;2024-02-04T12:37:22;13.70;;;4.83;;
74900;SDS011;63461;51.416;6.758;2024-02-04T12:39:48;8.63;;;4.50;;
74900;SDS011;63461;51.416;6.758;2024-02-04T12:42:16;11.13;;;4.70;;
74900;SDS011;63461;51.416;6.758;2024-02-04T12:44:49;6.40;;;3.27;;
74900;SDS011;63461;51.416;6.758;2024-02-04T12:47:19;8.83;;;4.97;;
74900;SDS011;63461;51.416;6.758;2024-02-04T12:49:45;11.70;;;4.87;;
74900;SDS011;63461;51.416;6.758;2024-02-04T12:52:11;8.80;;;3.90;;
74900;SDS011;63461;51.416;6.758;2024-02-04T12:54:40;9.63;;;5.17;;
74900;SDS011;63461;51.416;6.758;2024-02-04T12:57:07;9.90;;;4.73;;
74900;SDS011;63461;51.416;6.758;2024-02-04T12:59:36;7.43;;;3.77;;
74900;SDS011;63461;51.416;6.758;2024-02-04T13:02:02;9.27;;;4.97;;
74900;SDS011;63461;51.416;6.758;2024-02-04T13:04:39;8.13;;;4.70;;
74900;SDS011;63461;51.416;6.758;2024-02-04T13:07:07;11.00;;;5.07;;
74900;SDS011;63461;51.416;6.758;2024-02-04T13:09:41;7.23;;;4.07;;
74900;SDS011;63461;51.416;6.758;2024-02-04T13:12:09;10.47;;;4.20;;
74900;SDS011;63461;51.416;6.758;2024-02-04T13:14:38;7.70;;;4.70;;
74900;SDS011;63461;51.416;6.758;2024-02-04T13:17:05;8.93;;;4.87;;
74900;SDS011;63461;51.416;6.758;2024-02-04T13:19:32;8.80;;;4.50;;
74900;SDS011;63461;51.416;6.758;2024-02-04T13:22:04;6.83;;;4.00;;
74900;SDS011;63461;51.416;6.758;2024-02-04T13:24:31;8.17;;;4.60;;
74900;SDS011;63461;51.416;6.758;2024-02-04T13:26:58;10.70;;;5.00;;
74900;SDS011;63461;51.416;6.758;2024-02-04T13:29:26;7.73;;;4.30;;
74900;SDS011;63461;51.416;6.758;2024-02-04T13:31:55;10.50;;;5.00;;
74900;SDS011;63461;51.416;6.758;2024-02-04T13:34:20;8.27;;;4.80;;
74900;SDS011;63461;51.416;6.758;2024-02-04T13:36:47;11.77;;;4.77;;
74900;SDS011;63461;51.416;6.758;2024-02-04T13:43:19;7.20;;;4.07;;
74900;SDS011;63461;51.416;6.758;2024-02-04T13:45:45;6.70;;;3.53;;
74900;SDS011;63461;51.416;6.758;2024-02-04T13:48:13;8.57;;;4.70;;
74900;SDS011;63461;51.416;6.758;2024-02-04T13:50:39;9.57;;;5.00;;
74900;SDS011;63461;51.416;6.758;2024-02-04T13:53:14;7.03;;;4.60;;
74900;SDS011;63461;51.416;6.758;2024-02-04T13:55:39;11.40;;;5.00;;
74900;SDS011;63461;51.416;6.758;2024-02-04T13:58:05;6.90;;;4.73;;
74900;SDS011;63461;51.416;6.758;2024-02-04T14:00:31;10.20;;;5.23;;
74900;SDS011;63461;51.416;6.758;2024-02-04T14:02:57;8.37;;;4.33;;
74900;SDS011;63461;51.416;6.758;2024-02-04T14:05:22;11.57;;;5.87;;
74900;SDS011;63461;51.416;6.758;2024-02-04T14:07:50;9.20;;;5.90;;
74900;SDS011;63461;51.416;6.758;2024-02-04T14:10:16;12.27;;;6.53;;
74900;SDS011;63461;51.416;6.758;2024-02-04T14:12:42;13.73;;;6.37;;
74900;SDS011;63461;51.416;6.758;2024-02-04T14:15:10;10.83;;;5.90;;
74900;SDS011;63461;51.416;6.758;2024-02-04T14:17:37;12.37;;;6.33;;
74900;SDS011;63461;51.416;6.758;2024-02-04T14:20:04;13.20;;;6.33;;
74900;SDS011;63461;51.416;6.758;2024-02-04T14:22:31;15.03;;;7.10;;
74900;SDS011;63461;51.416;6.758;2024-02-04T14:24:57;16.90;;;6.67;;
74900;SDS011;63461;51.416;6.758;2024-02-04T14:27:23;14.13;;;7.00;;
74900;SDS011;63461;51.416;6.758;2024-02-04T14:29:49;12.37;;;5.90;;
74900;SDS011;63461;51.416;6.758;2024-02-04T14:32:14;11.93;;;5.90;;
74900;SDS011;63461;51.416;6.758;2024-02-04T14:34:40;14.60;;;5.10;;
74900;SDS011;63461;51.416;6.758;2024-02-04T14:37:06;12.13;;;5.57;;
74900;SDS011;63461;51.416;6.758;2024-02-04T14:39:33;16.17;;;6.03;;
74900;SDS011;63461;51.416;6.758;2024-02-04T14:41:59;8.67;;;4.63;;
74900;SDS011;63461;51.416;6.758;2024-02-04T14:44:25;12.30;;;6.70;;
74900;SDS011;63461;51.416;6.758;2024-02-04T14:46:50;12.67;;;5.97;;
74900;SDS011;63461;51.416;6.758;2024-02-04T14:49:16;11.50;;;5.07;;